Ana Sayfa
METAR-TAF:

METAR-TAF

Havaalanları :

Franklin County, Vermont, Amerika Birleşik Devletleri

Enlem: 44-56-25N, Boylam: 073-05-51W, yükseklik: 69 m

Güncel hava durumu gözlemi

Rapor saat 05:55 UTC de 27 dakika önce yapıldı.
Sakin rüzgar
Sıcaklık 15°C
Nem 100%
Basınç 1014 hPa
Görüş mesafesi: 16.1 km
Açık gökyüzü

METAR: KFSO 240555Z AUTO 00000KT 10SM CLR 15/15 A2994 RMK AO2 T01510145 10226 20151

Saat: 02:22 (06:22 UTC)


TAF: eksik

4.000'den fazla havaalanı için hava durumu gözlemleri ve tahminleri (METAR ve TAF raporları).

Kullanılabilir istasyonlar harita üzerinde sarı ve kırmızı noktalarla gösterilir.

İstasyonun adını görmek için fareyi noktanın üzerinde gezdirin.

Sonrasında hava gözlem ve tahminlerini görmek için tıklayın.

Haritayı değiştirmek için: yaklaştırmak için siyah artı işaretli yeşil düğmeye ve uzaklaştırmak için de eksi işaretli düğmeye hızla tıklayın; bitişik haritalar için yeşil okları kullanın.


METAR-TAF: